Time;durP1;ratioP1;P1;durP2;ratioP2;P2;SDS_P1;SDS_P2;PMS_P1;PMS_P2;Temp;Humidity;BMP_temperature;BMP_pressure;BME280_temperature;BME280_humidity;BME280_pressure;Samples;Min_cycle;Max_cycle;Signal;HPM_P1;HPM_P2
2022/11/20 00:00:37;;;;;;;29.80;19.88;;;;;;;1.35;69.08;99501.38;5052793;28;20127;-84
2022/11/20 00:03:03;;;;;;;28.08;18.98;;;;;;;1.47;68.42;99501.56;5044178;28;20140;-83
2022/11/20 00:05:28;;;;;;;31.48;18.77;;;;;;;1.40;68.81;99496.22;5033110;28;20044;-84
2022/11/20 00:07:53;;;;;;;31.80;17.43;;;;;;;1.01;69.85;99504.97;5041499;28;20033;-83
2022/11/20 00:10:18;;;;;;;28.10;16.63;;;;;;;1.24;69.98;99501.00;5049187;28;20314;-83
2022/11/20 00:12:44;;;;;;;28.97;17.80;;;;;;;1.31;69.79;99501.00;5044051;28;20277;-82
2022/11/20 00:15:09;;;;;;;33.00;20.00;;;;;;;1.18;70.96;99493.78;5049571;28;20269;-85
2022/11/20 00:17:35;;;;;;;26.08;17.50;;;;;;;1.21;71.39;99495.22;5045505;28;20885;-85
2022/11/20 00:20:00;;;;;;;26.20;16.23;;;;;;;1.23;71.67;99491.31;5039644;28;20037;-83
2022/11/20 00:22:26;;;;;;;24.52;16.30;;;;;;;1.23;72.20;99479.72;5039961;28;20481;-83
2022/11/20 00:24:51;;;;;;;28.63;16.27;;;;;;;1.42;72.46;99491.47;5049012;28;20546;-82
2022/11/20 00:27:16;;;;;;;22.13;15.45;;;;;;;1.42;72.26;99494.16;5038270;28;20576;-85
2022/11/20 00:29:41;;;;;;;24.83;14.20;;;;;;;1.29;73.25;99489.63;5039032;28;20264;-83
2022/11/20 00:32:07;;;;;;;28.55;16.45;;;;;;;1.34;73.11;99489.00;5041343;28;20766;-82
2022/11/20 00:34:32;;;;;;;26.53;14.90;;;;;;;1.31;73.81;99490.25;5046616;28;20041;-83
2022/11/20 00:36:57;;;;;;;25.10;16.08;;;;;;;1.65;72.92;99484.75;5040598;28;20266;-85
2022/11/20 00:39:22;;;;;;;28.77;14.27;;;;;;;1.74;72.07;99486.19;5040391;28;20021;-84
2022/11/20 00:41:48;;;;;;;26.00;17.10;;;;;;;1.79;71.67;99492.78;5042412;28;20269;-83
2022/11/20 00:44:13;;;;;;;27.57;18.03;;;;;;;1.49;73.34;99494.94;5044180;28;20259;-84
2022/11/20 00:46:38;;;;;;;29.20;17.33;;;;;;;1.56;73.36;99496.81;5039360;28;20751;-83
2022/11/20 00:49:03;;;;;;;23.97;14.80;;;;;;;1.74;72.16;99506.88;5041572;28;20021;-84
2022/11/20 00:51:29;;;;;;;23.63;15.80;;;;;;;1.53;73.55;99499.94;5041445;28;20261;-83
2022/11/20 00:53:59;;;;;;;26.67;15.20;;;;;;;1.72;72.99;99501.72;5038150;28;20619;-83
2022/11/20 00:56:25;;;;;;;28.00;16.65;;;;;;;1.85;72.69;99502.69;5042847;28;20048;-83
2022/11/20 00:58:50;;;;;;;24.70;14.88;;;;;;;1.94;73.47;99501.41;5041907;28;20076;-82
2022/11/20 01:01:28;;;;;;;22.13;14.45;;;;;;;1.87;71.51;99500.63;5043039;28;20256;-83
2022/11/20 01:03:57;;;;;;;21.25;14.35;;;;;;;1.79;72.22;99493.59;5042293;28;20056;-84
2022/11/20 01:06:25;;;;;;;25.38;14.90;;;;;;;1.88;71.91;99494.19;5042394;28;20302;-83
2022/11/20 01:08:53;;;;;;;27.83;16.52;;;;;;;1.82;72.58;99503.13;5041180;28;20037;-84
2022/11/20 01:11:21;;;;;;;20.83;13.18;;;;;;;1.94;72.50;99492.50;5043148;28;20482;-84
2022/11/20 01:13:49;;;;;;;26.15;14.85;;;;;;;1.98;73.33;99486.50;5042952;28;20490;-83
2022/11/20 01:16:22;;;;;;;22.73;12.85;;;;;;;2.12;72.72;99491.78;5039958;28;20048;-83
2022/11/20 01:18:49;;;;;;;17.30;11.82;;;;;;;2.23;72.40;99493.00;5039791;28;20041;-83
2022/11/20 01:21:16;;;;;;;17.63;10.90;;;;;;;2.45;72.39;99485.41;5040573;28;20075;-84
2022/11/20 01:23:43;;;;;;;21.25;12.75;;;;;;;2.05;73.49;99489.16;5041727;28;20040;-83
2022/11/20 01:26:20;;;;;;;19.70;13.30;;;;;;;2.19;73.69;99481.84;5043879;28;20036;-82
2022/11/20 01:28:45;;;;;;;13.43;9.60;;;;;;;2.05;74.40;99480.25;5042743;28;20029;-83
2022/11/20 01:31:15;;;;;;;19.08;11.77;;;;;;;2.02;75.06;99480.69;5042306;28;20033;-83
2022/11/20 01:33:41;;;;;;;21.70;12.38;;;;;;;2.23;75.68;99471.47;5044005;28;20029;-84
2022/11/20 01:36:08;;;;;;;16.55;12.02;;;;;;;2.38;74.53;99471.16;5041984;28;20044;-83
2022/11/20 01:38:33;;;;;;;27.42;12.18;;;;;;;2.32;74.87;99463.94;5041027;28;20044;-83
2022/11/20 01:40:59;;;;;;;13.82;9.52;;;;;;;2.31;74.74;99473.91;5039206;28;20048;-84
2022/11/20 01:43:25;;;;;;;16.95;10.07;;;;;;;2.16;76.31;99459.91;5041196;28;20033;-84
2022/11/20 01:45:59;;;;;;;17.50;9.18;;;;;;;2.41;76.30;99462.66;5040520;28;20045;-84
2022/11/20 01:48:29;;;;;;;20.92;11.57;;;;;;;2.39;76.10;99459.34;5042635;28;20434;-83
2022/11/20 01:50:57;;;;;;;18.83;11.88;;;;;;;2.53;74.79;99459.25;5040057;28;20522;-84
2022/11/20 01:53:28;;;;;;;24.20;14.98;;;;;;;2.56;74.99;99453.44;5046313;28;20037;-84
2022/11/20 01:55:56;;;;;;;20.65;13.13;;;;;;;2.63;73.73;99448.81;5039876;28;20029;-84
2022/11/20 01:58:27;;;;;;;18.08;11.20;;;;;;;2.56;74.19;99448.06;5042102;28;20029;-84
2022/11/20 02:00:52;;;;;;;23.27;12.23;;;;;;;2.60;74.90;99443.88;5040693;28;20542;-83
2022/11/20 02:03:19;;;;;;;19.55;11.25;;;;;;;2.67;74.56;99446.50;5041840;28;20041;-85
2022/11/20 02:05:51;;;;;;;15.20;9.40;;;;;;;2.77;74.36;99441.44;5037437;28;20036;-83
2022/11/20 02:08:17;;;;;;;16.02;9.50;;;;;;;2.65;75.61;99452.13;5039735;28;20036;-84
2022/11/20 02:10:43;;;;;;;16.17;9.10;;;;;;;2.66;75.73;99452.94;5041599;28;20076;-83
2022/11/20 02:15:52;;;;;;;24.67;12.45;;;;;;;2.65;75.63;99453.97;5042490;28;20036;-84
2022/11/20 02:18:19;;;;;;;22.67;13.00;;;;;;;2.60;75.57;99456.50;5038690;28;20033;-84
2022/11/20 02:20:48;;;;;;;18.55;11.45;;;;;;;2.67;76.02;99455.41;5039305;28;20041;-83
2022/11/20 02:23:54;;;;;;;19.65;11.43;;;;;;;2.68;76.07;99450.84;5041610;28;20116;-84
2022/11/20 02:26:21;;;;;;;22.50;12.00;;;;;;;2.81;75.85;99444.50;5031075;28;20045;-83
2022/11/20 02:28:47;;;;;;;15.20;9.35;;;;;;;2.80;75.67;99438.34;5039319;28;20053;-85
2022/11/20 02:31:12;;;;;;;17.13;9.80;;;;;;;2.85;75.53;99440.34;5038899;28;20513;-83
2022/11/20 02:33:38;;;;;;;21.75;13.80;;;;;;;2.90;75.49;99440.50;5039309;28;20470;-84
2022/11/20 02:36:03;;;;;;;18.67;12.38;;;;;;;2.76;75.96;99436.28;5040813;28;20033;-84
2022/11/20 02:38:28;;;;;;;17.75;10.95;;;;;;;2.86;75.82;99442.00;5039549;28;20382;-83
2022/11/20 02:40:54;;;;;;;16.98;9.73;;;;;;;2.87;75.95;99449.03;5039615;28;20033;-83
2022/11/20 02:43:19;;;;;;;17.83;10.87;;;;;;;2.74;76.08;99438.38;5043841;28;20041;-84
2022/11/20 02:45:44;;;;;;;17.13;12.90;;;;;;;2.79;75.67;99425.06;5041252;28;20262;-83
2022/11/20 02:48:09;;;;;;;18.53;9.30;;;;;;;2.76;76.64;99425.53;5040990;28;20029;-83
2022/11/20 02:50:38;;;;;;;22.92;11.52;;;;;;;2.94;76.08;99427.41;5040492;28;20273;-84
2022/11/20 02:53:03;;;;;;;19.00;10.70;;;;;;;2.87;76.93;99432.03;5041470;28;20048;-84
2022/11/20 02:55:28;;;;;;;18.27;8.47;;;;;;;2.93;76.64;99423.06;5040669;28;20028;-83
2022/11/20 02:57:54;;;;;;;14.02;9.10;;;;;;;2.75;77.13;99423.84;5039759;28;20266;-83
2022/11/20 03:00:19;;;;;;;12.05;7.68;;;;;;;2.92;76.93;99408.81;5038662;28;20073;-83
2022/11/20 03:02:44;;;;;;;13.88;7.63;;;;;;;3.10;75.99;99414.41;5036978;28;20033;-83
2022/11/20 03:05:09;;;;;;;14.23;7.83;;;;;;;3.02;76.53;99415.53;5039873;28;20033;-86
2022/11/20 03:07:35;;;;;;;15.40;8.60;;;;;;;2.98;76.78;99414.31;5040181;28;20254;-84
2022/11/20 03:10:00;;;;;;;14.88;8.43;;;;;;;3.10;76.58;99407.16;5037594;28;20640;-84
2022/11/20 03:12:25;;;;;;;18.40;10.43;;;;;;;3.03;77.19;99417.19;5040895;28;20044;-84
2022/11/20 03:14:51;;;;;;;18.08;10.07;;;;;;;2.97;76.04;99408.09;5039685;28;20275;-86
2022/11/20 03:17:16;;;;;;;16.98;9.95;;;;;;;2.76;77.68;99414.75;5042303;28;20124;-84
2022/11/20 03:19:41;;;;;;;13.85;9.68;;;;;;;2.87;77.59;99407.78;5042941;28;20028;-85
2022/11/20 03:22:06;;;;;;;16.70;10.87;;;;;;;2.94;76.91;99405.03;5043311;28;20060;-84
2022/11/20 03:24:32;;;;;;;16.42;10.70;;;;;;;2.97;77.07;99413.50;5043145;28;20246;-83
2022/11/20 03:26:57;;;;;;;19.27;11.65;;;;;;;2.92;77.36;99408.81;5042540;28;20029;-84
2022/11/20 03:29:22;;;;;;;17.90;10.20;;;;;;;2.83;78.18;99410.13;5043958;28;20036;-84
2022/11/20 03:31:47;;;;;;;15.57;8.45;;;;;;;3.20;76.38;99413.88;5042653;28;20308;-84
2022/11/20 03:34:13;;;;;;;20.10;11.75;;;;;;;3.18;75.36;99402.50;5044394;28;20041;-84
2022/11/20 03:36:39;;;;;;;18.70;12.43;;;;;;;3.02;75.92;99402.91;5045088;28;20079;-84
2022/11/20 03:39:05;;;;;;;20.17;12.93;;;;;;;2.86;76.50;99398.91;5041881;28;20026;-84
2022/11/20 03:41:35;;;;;;;30.35;12.85;;;;;;;2.94;76.10;99410.44;5043306;28;20025;-87
2022/11/20 03:44:03;;;;;;;16.45;11.75;;;;;;;2.90;76.76;99399.28;5052720;28;20061;-85
2022/11/20 03:46:29;;;;;;;24.88;11.48;;;;;;;3.02;76.88;99393.97;5052818;28;20123;-83
2022/11/20 03:48:54;;;;;;;19.02;10.68;;;;;;;3.20;76.83;99398.56;5042670;28;20528;-84
2022/11/20 03:51:21;;;;;;;18.13;10.80;;;;;;;3.32;76.31;99384.31;5033660;28;20074;-84
2022/11/20 03:53:48;;;;;;;15.82;9.77;;;;;;;3.31;75.89;99391.59;5033184;28;20409;-83
2022/11/20 03:56:16;;;;;;;15.82;9.13;;;;;;;3.19;76.00;99396.09;5034012;28;20037;-84
2022/11/20 03:58:42;;;;;;;19.95;11.82;;;;;;;2.90;76.53;99399.28;5033844;28;20141;-84
2022/11/20 04:01:16;;;;;;;19.08;10.80;;;;;;;2.96;76.99;99392.19;5033084;28;20116;-84
2022/11/20 04:03:42;;;;;;;21.55;10.95;;;;;;;3.11;76.77;99394.53;5032459;28;20052;-85
2022/11/20 04:06:16;;;;;;;20.10;10.63;;;;;;;3.15;76.19;99395.72;5033008;28;20065;-84
2022/11/20 04:08:42;;;;;;;15.70;9.60;;;;;;;2.99;77.34;99383.66;5033185;28;20072;-83
2022/11/20 04:11:19;;;;;;;16.05;10.23;;;;;;;2.92;77.18;99381.88;5033354;28;20432;-83
2022/11/20 04:14:05;;;;;;;16.73;10.27;;;;;;;3.34;76.16;99376.81;5046563;28;20049;-86
2022/11/20 04:16:34;;;;;;;18.23;12.25;;;;;;;3.23;75.96;99387.34;5052826;28;20488;-84
2022/11/20 04:19:02;;;;;;;17.92;10.98;;;;;;;3.20;76.66;99384.25;5053253;28;20050;-84
2022/11/20 04:21:28;;;;;;;19.77;12.25;;;;;;;3.22;76.17;99390.22;5053319;28;20036;-83
2022/11/20 04:23:54;;;;;;;21.50;10.80;;;;;;;3.19;76.13;99385.31;5036496;28;20048;-86
2022/11/20 04:26:22;;;;;;;16.95;8.93;;;;;;;3.15;76.97;99393.81;5032467;28;20033;-84
2022/11/20 04:28:47;;;;;;;19.88;11.27;;;;;;;3.15;76.76;99390.34;5031442;28;20072;-85
2022/11/20 04:31:15;;;;;;;18.60;10.90;;;;;;;3.24;76.25;99388.97;5032640;28;20442;-83
2022/11/20 04:33:41;;;;;;;18.35;10.45;;;;;;;3.31;76.54;99383.50;5032151;28;20259;-84
2022/11/20 04:36:28;;;;;;;16.90;9.90;;;;;;;3.10;77.58;99388.31;5032422;28;20044;-83
2022/11/20 04:38:58;;;;;;;16.35;8.43;;;;;;;3.20;77.18;99395.03;5031306;28;20176;-85
2022/11/20 04:41:27;;;;;;;18.92;10.52;;;;;;;3.15;76.93;99391.13;5032695;28;20026;-84
2022/11/20 04:43:59;;;;;;;18.55;10.27;;;;;;;3.29;76.76;99399.09;5032017;28;20037;-85
2022/11/20 04:46:25;;;;;;;19.77;12.00;;;;;;;3.22;76.87;99385.69;5032197;28;20356;-84
2022/11/20 04:48:50;;;;;;;21.17;10.07;;;;;;;3.23;76.17;99389.19;5042585;28;20047;-83
2022/11/20 04:51:15;;;;;;;18.17;10.87;;;;;;;3.31;76.00;99391.59;5051903;28;20040;-84
2022/11/20 04:53:41;;;;;;;19.03;10.20;;;;;;;3.36;75.43;99390.91;5037778;28;20767;-84
2022/11/20 04:56:08;;;;;;;14.35;9.73;;;;;;;3.22;75.83;99390.22;5032296;28;20247;-84
2022/11/20 04:58:34;;;;;;;20.98;12.20;;;;;;;3.33;75.11;99383.28;5032109;28;20033;-84
2022/11/20 05:01:03;;;;;;;25.20;14.55;;;;;;;3.30;75.23;99384.53;5032384;28;20033;-84
2022/11/20 05:03:29;;;;;;;22.23;14.07;;;;;;;3.19;75.60;99386.13;5043446;28;20116;-84
2022/11/20 05:05:54;;;;;;;17.48;11.35;;;;;;;3.04;75.86;99375.72;5051455;28;20107;-84
2022/11/20 05:08:19;;;;;;;16.60;10.90;;;;;;;3.11;75.78;99379.16;5051038;28;20036;-84
2022/11/20 05:10:44;;;;;;;15.23;9.63;;;;;;;3.02;75.97;99385.91;5050979;28;20284;-84
2022/11/20 05:13:10;;;;;;;16.10;9.87;;;;;;;3.09;75.96;99392.03;5051018;28;20316;-84
2022/11/20 05:15:35;;;;;;;15.60;9.87;;;;;;;3.20;74.86;99395.84;5051119;28;20262;-84
2022/11/20 05:18:00;;;;;;;17.87;10.83;;;;;;;2.95;76.22;99396.72;5051249;28;20285;-84
2022/11/20 05:20:25;;;;;;;16.80;10.57;;;;;;;3.00;76.09;99393.38;5040396;28;20786;-84
2022/11/20 05:22:52;;;;;;;24.33;11.43;;;;;;;2.97;76.58;99402.72;5037196;28;20527;-84
2022/11/20 05:25:17;;;;;;;17.50;10.47;;;;;;;3.11;75.43;99391.81;5051119;28;20116;-84
2022/11/20 05:27:43;;;;;;;19.03;10.77;;;;;;;3.16;74.69;99402.75;5051386;28;20722;-84
2022/11/20 05:30:09;;;;;;;19.52;10.63;;;;;;;3.23;75.40;99403.50;5051106;28;20301;-84
2022/11/20 05:32:34;;;;;;;20.55;12.13;;;;;;;3.24;74.88;99388.97;5050223;28;20458;-84
2022/11/20 05:34:59;;;;;;;17.42;10.88;;;;;;;3.26;74.66;99392.25;5051409;28;20086;-83
2022/11/20 05:37:24;;;;;;;17.30;10.07;;;;;;;3.33;75.06;99388.66;5050808;28;20466;-83
2022/11/20 05:39:50;;;;;;;18.73;10.27;;;;;;;3.26;74.61;99402.22;5051243;28;20315;-83
2022/11/20 05:42:30;;;;;;;17.00;10.93;;;;;;;3.31;74.53;99394.28;5050692;28;20264;-83
2022/11/20 05:44:57;;;;;;;18.30;9.55;;;;;;;3.32;75.09;99401.31;5051292;28;20061;-83
2022/11/20 05:47:22;;;;;;;16.42;10.70;;;;;;;3.35;74.56;99392.78;5051093;28;20091;-83
2022/11/20 05:49:47;;;;;;;18.52;10.73;;;;;;;3.24;75.25;99388.13;5051208;28;20041;-84
2022/11/20 05:52:13;;;;;;;18.27;10.50;;;;;;;3.46;74.18;99390.34;5048857;28;20048;-85
2022/11/20 05:54:38;;;;;;;16.60;10.38;;;;;;;3.33;74.91;99397.59;5030943;28;20025;-84
2022/11/20 05:57:03;;;;;;;20.38;10.45;;;;;;;3.32;74.96;99385.13;5031137;28;20390;-84
2022/11/20 05:59:29;;;;;;;18.17;9.95;;;;;;;3.10;74.67;99388.31;5030838;28;20039;-84
2022/11/20 06:01:54;;;;;;;25.00;12.32;;;;;;;2.94;75.90;99384.34;5030895;28;20033;-83
2022/11/20 06:04:19;;;;;;;20.97;12.10;;;;;;;3.10;75.29;99384.78;5029110;28;20040;-84
2022/11/20 06:06:44;;;;;;;18.87;10.67;;;;;;;3.17;74.83;99382.84;5030897;28;20606;-83
2022/11/20 06:09:10;;;;;;;19.13;10.98;;;;;;;2.98;75.68;99388.22;5030692;28;20275;-84
2022/11/20 06:11:35;;;;;;;17.58;11.27;;;;;;;3.04;75.18;99383.81;5030817;28;20095;-83
2022/11/20 06:14:00;;;;;;;16.58;11.05;;;;;;;3.10;75.00;99393.69;5046400;28;20352;-83
2022/11/20 06:16:26;;;;;;;18.40;9.87;;;;;;;3.41;72.19;99382.13;5050022;28;20029;-83
2022/11/20 06:18:51;;;;;;;20.02;11.20;;;;;;;3.34;72.59;99374.97;5051218;28;20261;-84
2022/11/20 06:21:19;;;;;;;20.33;10.77;;;;;;;3.33;71.94;99376.03;5049657;28;20108;-84
2022/11/20 06:23:46;;;;;;;16.17;11.85;;;;;;;3.18;73.05;99389.03;5049938;28;20262;-84
2022/11/20 06:26:14;;;;;;;17.00;10.18;;;;;;;3.17;73.36;99376.63;5050521;28;20116;-84
2022/11/20 06:28:40;;;;;;;18.88;12.07;;;;;;;3.07;73.29;99380.66;5050565;28;20041;-84
2022/11/20 06:31:06;;;;;;;18.52;11.40;;;;;;;3.15;72.68;99377.66;5049963;28;20136;-84
2022/11/20 06:33:32;;;;;;;16.92;10.07;;;;;;;2.95;74.03;99385.16;5037198;28;20030;-84
2022/11/20 06:35:59;;;;;;;16.75;10.02;;;;;;;3.17;72.33;99382.00;5030923;28;20462;-83
2022/11/20 06:38:25;;;;;;;15.10;10.00;;;;;;;2.92;72.72;99392.63;5030597;28;20061;-84
2022/11/20 06:40:50;;;;;;;16.17;11.15;;;;;;;2.72;73.49;99390.16;5030641;28;20080;-84
2022/11/20 06:43:16;;;;;;;12.80;9.57;;;;;;;2.80;73.15;99399.81;5029786;28;20033;-84
2022/11/20 06:45:41;;;;;;;18.30;10.10;;;;;;;2.55;75.18;99400.63;5030173;28;20064;-84
2022/11/20 06:48:06;;;;;;;16.80;10.73;;;;;;;2.57;74.87;99401.25;5034819;28;20045;-84
2022/11/20 06:50:31;;;;;;;18.92;10.38;;;;;;;2.87;73.13;99397.84;5048734;28;20056;-85
2022/11/20 06:53:00;;;;;;;16.10;9.82;;;;;;;2.90;71.81;99404.66;5045471;28;20234;-85
2022/11/20 06:55:25;;;;;;;13.48;9.60;;;;;;;2.69;71.93;99406.72;5034205;28;20044;-83
2022/11/20 06:57:51;;;;;;;15.40;8.07;;;;;;;2.59;71.99;99401.84;5034295;28;20046;-83
2022/11/20 07:00:16;;;;;;;16.90;9.98;;;;;;;2.54;72.25;99401.69;5034467;28;20278;-84
2022/11/20 07:02:41;;;;;;;16.52;8.93;;;;;;;2.58;72.67;99400.22;5033592;28;20033;-83
2022/11/20 07:05:07;;;;;;;20.53;11.17;;;;;;;2.38;72.54;99393.09;5033775;28;20036;-84
2022/11/20 07:07:32;;;;;;;14.10;10.13;;;;;;;2.39;72.09;99399.31;5033965;28;20344;-83
2022/11/20 07:09:57;;;;;;;19.98;11.98;;;;;;;2.32;72.55;99396.69;5034195;28;20167;-83
2022/11/20 07:12:22;;;;;;;14.60;9.13;;;;;;;2.54;72.33;99396.31;5033552;28;20049;-84
2022/11/20 07:14:47;;;;;;;17.10;9.53;;;;;;;2.30;71.88;99393.38;5034160;28;20037;-85
2022/11/20 07:17:13;;;;;;;18.70;10.77;;;;;;;2.35;71.62;99401.63;5033705;28;20294;-85
2022/11/20 07:19:38;;;;;;;16.85;9.57;;;;;;;2.08;72.91;99408.03;5051020;28;20266;-83
2022/11/20 07:22:03;;;;;;;20.10;12.03;;;;;;;2.12;72.31;99405.72;5053185;28;20029;-84
2022/11/20 07:24:28;;;;;;;22.13;13.82;;;;;;;2.25;72.74;99412.88;5033518;28;20277;-83
2022/11/20 07:26:54;;;;;;;25.73;18.43;;;;;;;2.31;72.02;99406.63;5033709;28;20033;-84
2022/11/20 07:29:19;;;;;;;27.02;19.75;;;;;;;2.37;72.04;99421.06;5033359;28;20275;-84
2022/11/20 07:31:44;;;;;;;23.07;17.43;;;;;;;2.33;71.62;99423.38;5033514;28;20030;-83
2022/11/20 07:34:09;;;;;;;29.38;18.42;;;;;;;2.20;72.37;99418.06;5050899;28;20739;-83
2022/11/20 07:36:35;;;;;;;21.13;14.40;;;;;;;2.21;72.53;99425.97;5053900;28;20114;-84
2022/11/20 07:39:00;;;;;;;17.38;11.98;;;;;;;2.31;72.44;99424.63;5041889;28;20060;-83
2022/11/20 07:41:25;;;;;;;17.35;12.15;;;;;;;2.52;71.20;99425.31;5032893;28;20056;-84
2022/11/20 07:43:51;;;;;;;18.30;12.77;;;;;;;2.68;70.33;99424.75;5048630;28;20033;-84
2022/11/20 07:46:16;;;;;;;17.35;11.40;;;;;;;2.49;71.38;99431.94;5053602;28;20048;-83
2022/11/20 07:48:41;;;;;;;18.92;10.80;;;;;;;2.56;71.41;99421.94;5052727;28;20033;-84
2022/11/20 07:51:07;;;;;;;17.10;10.80;;;;;;;2.55;70.97;99424.88;5051846;28;20043;-85
2022/11/20 07:53:32;;;;;;;17.67;11.95;;;;;;;2.49;71.50;99423.03;5040118;28;20271;-84
2022/11/20 07:56:02;;;;;;;22.25;12.85;;;;;;;2.60;71.23;99426.91;5033175;28;20033;-83
2022/11/20 07:58:29;;;;;;;18.77;11.35;;;;;;;2.47;72.11;99417.06;5033207;28;20025;-84
2022/11/20 08:00:55;;;;;;;20.15;12.32;;;;;;;2.46;72.85;99427.03;5032844;28;20034;-83
2022/11/20 08:03:20;;;;;;;20.27;11.18;;;;;;;2.65;71.19;99427.88;5042104;28;20036;-85
2022/11/20 08:05:45;;;;;;;17.23;12.93;;;;;;;2.64;70.78;99428.94;5045643;28;20047;-84
2022/11/20 08:08:10;;;;;;;19.83;12.00;;;;;;;2.78;70.31;99423.44;5033133;28;20251;-86
2022/11/20 08:10:36;;;;;;;18.83;10.52;;;;;;;2.88;70.07;99414.84;5035819;28;20751;-83
2022/11/20 08:15:52;;;;;;;17.63;11.43;;;;;;;2.88;70.99;99410.28;5039037;28;20075;-84
2022/11/20 08:18:17;;;;;;;17.85;12.05;;;;;;;2.79;71.15;99411.59;5038732;28;20117;-85
2022/11/20 08:20:43;;;;;;;21.60;12.68;;;;;;;2.72;72.20;99414.38;5052342;28;20124;-84
2022/11/20 08:23:08;;;;;;;22.60;12.55;;;;;;;2.79;72.02;99407.03;5052472;28;20029;-84
2022/11/20 08:25:35;;;;;;;19.48;12.10;;;;;;;2.96;71.70;99402.94;5053034;28;20451;-83
2022/11/20 08:28:05;;;;;;;19.67;12.38;;;;;;;3.02;70.87;99410.13;5052701;28;20459;-83
2022/11/20 08:30:31;;;;;;;18.63;12.05;;;;;;;3.01;71.50;99413.91;5052649;28;20068;-84
2022/11/20 08:33:06;;;;;;;20.58;12.65;;;;;;;2.97;71.87;99410.00;5044832;28;20471;-83
2022/11/20 08:35:36;;;;;;;20.83;12.45;;;;;;;3.24;71.11;99398.91;5032294;28;20479;-84
2022/11/20 08:38:02;;;;;;;26.98;15.10;;;;;;;3.19;71.44;99401.47;5032331;28;20076;-84
2022/11/20 08:40:27;;;;;;;22.80;14.32;;;;;;;3.22;71.11;99406.41;5032333;28;20524;-84
2022/11/20 08:42:53;;;;;;;21.23;12.57;;;;;;;3.31;71.39;99397.00;5039061;28;20033;-85
2022/11/20 08:45:19;;;;;;;20.85;12.82;;;;;;;3.21;71.47;99402.91;5052204;28;20033;-84
2022/11/20 08:47:44;;;;;;;20.58;12.23;;;;;;;3.28;71.37;99402.81;5051800;28;20033;-84
2022/11/20 08:50:10;;;;;;;17.85;12.23;;;;;;;3.63;68.75;99395.97;5052263;28;20079;-85
2022/11/20 08:52:36;;;;;;;19.55;11.93;;;;;;;3.52;68.24;99400.25;5051790;28;20025;-84
2022/11/20 08:55:01;;;;;;;20.17;12.98;;;;;;;3.28;68.90;99400.13;5052466;28;20036;-84
2022/11/20 08:57:27;;;;;;;19.92;11.48;;;;;;;3.35;69.07;99392.78;5036353;28;20466;-84
2022/11/20 08:59:52;;;;;;;18.50;12.25;;;;;;;3.51;67.82;99395.91;5032676;28;20040;-83
2022/11/20 09:02:17;;;;;;;18.93;12.57;;;;;;;3.61;66.81;99401.59;5034426;28;20038;-83
2022/11/20 09:04:42;;;;;;;19.97;12.43;;;;;;;3.87;66.48;99400.63;5052096;28;20265;-84
2022/11/20 09:07:08;;;;;;;21.70;12.60;;;;;;;3.80;65.89;99403.44;5052191;28;20274;-83
2022/11/20 09:09:33;;;;;;;22.50;13.57;;;;;;;4.02;65.04;99411.84;5051864;28;20270;-85
2022/11/20 09:11:58;;;;;;;19.55;12.25;;;;;;;4.06;65.27;99410.31;5050249;28;20286;-83
2022/11/20 09:14:28;;;;;;;18.42;11.23;;;;;;;4.14;64.42;99406.47;5049752;28;20032;-84
2022/11/20 09:16:54;;;;;;;22.45;13.38;;;;;;;4.14;64.17;99405.63;5032438;28;20091;-83
2022/11/20 09:19:19;;;;;;;19.10;11.20;;;;;;;4.21;64.45;99400.94;5048439;28;20394;-83
2022/11/20 09:21:44;;;;;;;19.80;12.15;;;;;;;4.36;64.49;99397.00;5038816;28;20442;-83
2022/11/20 09:24:10;;;;;;;20.70;10.87;;;;;;;4.29;63.95;99403.31;5046457;28;20043;-83
2022/11/20 09:26:35;;;;;;;21.77;13.60;;;;;;;4.34;63.99;99399.94;5044204;28;20273;-83
2022/11/20 09:29:00;;;;;;;18.17;10.97;;;;;;;4.38;64.21;99394.88;5051905;28;20274;-81
2022/11/20 09:31:26;;;;;;;21.20;10.50;;;;;;;4.23;64.24;99393.44;5067666;28;20366;-82
2022/11/20 09:33:51;;;;;;;19.33;11.15;;;;;;;4.26;64.38;99395.69;5041089;28;20740;-83
2022/11/20 09:36:18;;;;;;;16.00;10.55;;;;;;;4.23;65.53;99389.94;5031602;28;20478;-82
2022/11/20 09:38:45;;;;;;;18.67;10.88;;;;;;;4.40;65.30;99385.50;5031576;28;20037;-83
2022/11/20 09:41:39;;;;;;;17.95;11.15;;;;;;;4.53;64.66;99381.78;5031658;28;20069;-83
2022/11/20 09:44:24;;;;;;;19.33;11.63;;;;;;;4.55;65.00;99376.13;4990389;28;20045;-83
2022/11/20 09:46:55;;;;;;;43.90;11.70;;;;;;;4.64;64.50;99377.41;5031077;28;20128;-83
2022/11/20 09:49:54;;;;;;;22.67;14.50;;;;;;;4.60;65.16;99378.94;5045843;28;20064;-83
2022/11/20 09:52:45;;;;;;;20.83;9.60;;;;;;;4.66;65.94;99374.47;5048249;28;20410;-83
2022/11/20 09:55:13;;;;;;;17.27;9.63;;;;;;;4.87;65.52;99374.94;5030592;28;20067;-83
2022/11/20 09:57:45;;;;;;;19.10;11.25;;;;;;;4.83;65.81;99369.19;5031456;28;20503;-83
2022/11/20 10:00:14;;;;;;;20.83;11.75;;;;;;;4.86;65.63;99366.00;5031741;28;20046;-83
2022/11/20 10:02:43;;;;;;;19.85;12.45;;;;;;;4.99;66.51;99364.94;5030648;28;20036;-84
2022/11/20 10:05:18;;;;;;;19.83;10.98;;;;;;;4.79;67.05;99357.22;5031257;28;20041;-83
2022/11/20 10:07:55;;;;;;;16.83;11.82;;;;;;;5.08;65.99;99361.88;5030783;28;20417;-83
2022/11/20 10:10:47;;;;;;;16.92;10.40;;;;;;;4.81;66.64;99365.06;5030687;28;20057;-83
2022/11/20 10:13:19;;;;;;;18.85;11.88;;;;;;;4.90;66.85;99353.66;5040694;28;20091;-82
2022/11/20 10:16:11;;;;;;;16.83;10.80;;;;;;;5.04;66.15;99360.72;5050758;28;20037;-82
2022/11/20 10:18:42;;;;;;;19.10;10.93;;;;;;;4.90;65.82;99364.47;5050293;28;20028;-83
2022/11/20 10:21:19;;;;;;;17.45;10.20;;;;;;;4.90;65.82;99363.66;5050664;28;20064;-83
2022/11/20 10:24:03;;;;;;;26.23;9.77;;;;;;;4.92;67.25;99356.16;5050027;28;20389;-82
2022/11/20 10:26:42;;;;;;;20.57;11.93;;;;;;;5.01;67.23;99349.31;5049878;28;20041;-82
2022/11/20 10:29:13;;;;;;;18.67;11.30;;;;;;;5.00;67.06;99339.56;5050731;28;20041;-83
2022/11/20 10:31:45;;;;;;;18.65;11.45;;;;;;;4.91;68.22;99335.59;5048265;28;20417;-82
2022/11/20 10:34:33;;;;;;;20.45;11.73;;;;;;;5.16;66.94;99339.88;5050125;28;20037;-83
2022/11/20 10:37:09;;;;;;;20.75;12.68;;;;;;;5.31;66.34;99333.16;5050301;28;20069;-82
2022/11/20 10:39:42;;;;;;;20.77;12.13;;;;;;;5.35;65.82;99332.41;5050024;28;20470;-82
2022/11/20 10:42:28;;;;;;;20.27;12.88;;;;;;;5.29;66.00;99333.38;5049899;28;20048;-82
2022/11/20 10:45:09;;;;;;;21.38;11.57;;;;;;;5.21;66.64;99326.47;5043904;28;20454;-82
2022/11/20 10:47:35;;;;;;;16.58;11.60;;;;;;;5.47;65.97;99332.38;5030601;28;20041;-84
2022/11/20 10:50:09;;;;;;;18.10;10.55;;;;;;;5.51;65.38;99324.63;5049973;28;20025;-81
2022/11/20 10:52:43;;;;;;;21.88;11.77;;;;;;;5.41;66.19;99319.00;5045024;28;20029;-81
2022/11/20 10:55:41;;;;;;;15.98;9.40;;;;;;;5.48;64.61;99322.38;5030576;28;20322;-82
2022/11/20 10:58:33;;;;;;;18.40;9.85;;;;;;;5.49;65.03;99316.72;5030745;28;20124;-84
2022/11/20 11:01:22;;;;;;;16.75;9.07;;;;;;;5.54;64.54;99315.19;5044358;28;20037;-82
2022/11/20 11:03:48;;;;;;;17.20;9.57;;;;;;;5.35;65.49;99318.91;5035138;28;20041;-82
2022/11/20 11:06:26;;;;;;;16.88;10.00;;;;;;;5.23;66.50;99323.50;5030203;28;20040;-83
2022/11/20 11:08:53;;;;;;;22.70;11.85;;;;;;;5.46;65.22;99311.81;5030133;28;20502;-82
2022/11/20 11:11:23;;;;;;;15.77;8.35;;;;;;;5.51;65.44;99311.09;5030227;28;20120;-81
2022/11/20 11:13:48;;;;;;;17.25;8.20;;;;;;;5.54;64.48;99299.78;5044012;28;20044;-81
2022/11/20 11:16:25;;;;;;;19.60;8.80;;;;;;;5.67;64.55;99298.66;5049775;28;20462;-81
2022/11/20 11:18:51;;;;;;;12.68;7.65;;;;;;;5.61;63.89;99302.34;5049681;28;20107;-81
2022/11/20 11:21:23;;;;;;;14.05;7.88;;;;;;;5.63;64.10;99289.41;5048291;28;20045;-82
2022/11/20 11:23:58;;;;;;;14.18;9.32;;;;;;;5.79;63.71;99290.47;5044752;28;20037;-83
2022/11/20 11:26:24;;;;;;;14.18;8.48;;;;;;;5.84;63.44;99289.72;5050103;28;20033;-82
2022/11/20 11:28:57;;;;;;;14.73;7.68;;;;;;;5.93;62.90;99282.84;5050171;28;20033;-82
2022/11/20 11:31:31;;;;;;;13.90;6.93;;;;;;;5.82;62.82;99281.03;5066808;28;20052;-81
2022/11/20 11:34:13;;;;;;;16.67;8.73;;;;;;;5.83;62.81;99277.28;5053536;28;20528;-81
2022/11/20 11:36:39;;;;;;;16.77;9.43;;;;;;;5.78;62.39;99272.59;5049513;28;20547;-83